BBC Congo — V2EL3 — position and weather

sailwx.info

Track history (hours):
 
Tides and Currents Weather Stations Pressure Air Temp Water Temp Dewpoint Dewpoint Depression Visibility Wind Speed Wind Dir Waves Ship Positions

BBC Congo

Last reported at 2016-May-03 21:34 UTC. Time now 2016-May-03 22:04 UTC.
Position N 44°12' E 009°02'.

Length 144 m; draft 8.8 m.

Type: Ship. MMSI: 305466000.

Date/timePositionNaut miles runAvg speedWind from/ knotsBaromVisibWave heightAir tempDewpointWater temp
2016-May-03 21:34N 44°12' E 009°02'1312.8
2016-May-03 20:33N 44°24' E 008°56'2 1.5
2016-May-03 19:33N 44°24' E 008°54'0 0.0
2016-May-03 18:33N 44°24' E 008°54'0 0.0
2016-May-03 17:33N 44°24' E 008°54'0 0.0
2016-May-03 16:33N 44°24' E 008°54'0 0.0
2016-May-03 15:33N 44°24' E 008°54'0 0.0
2016-May-03 14:33N 44°24' E 008°54'0 0.0
2016-May-03 13:33N 44°24' E 008°54'0 0.0
2016-May-03 12:27N 44°24' E 008°54'0 0.0
2016-May-03 11:30N 44°24' E 008°54'0 0.0
2016-May-03 10:30N 44°24' E 008°54'0 0.0
2016-May-03 09:33N 44°24' E 008°54'0 0.0
2016-May-03 08:33N 44°24' E 008°54'0 0.0
2016-May-03 07:33N 44°24' E 008°54'0 0.0
2016-May-03 06:33N 44°24' E 008°54'0 0.0
2016-May-03 05:33N 44°24' E 008°54'0 0.1
2016-May-03 04:34N 44°24' E 008°54'5 4.7
2016-May-03 03:31N 44°22' E 008°60'0 0.0
2016-May-03 02:31N 44°22' E 008°60'0 0.0
2016-May-03 01:31N 44°22' E 008°60'0 0.0
2016-May-03 00:28N 44°22' E 008°60'0 0.0
2016-May-02 23:31N 44°22' E 008°60'0 0.0
2016-May-02 22:31N 44°22' E 008°60'0 0.0
2016-May-02 21:31N 44°22' E 008°60'0 0.0
2016-May-02 20:31N 44°22' E 008°60'1 1.1
2016-May-02 19:33N 44°21' E 008°59'1212.0
2016-May-02 18:33N 44°12' E 008°48'1313.0
2016-May-02 17:33N 44°03' E 008°35'1212.4
2016-May-02 16:33N 43°54' E 008°22'3012.6
2016-May-02 14:09N 43°34' E 007°52'814.1
2016-May-02 13:33N 43°28' E 007°43'1514.5
2016-May-02 12:33N 43°18' E 007°29'23710.3
2016-May-01 13:32N 41°10' E 002°59'1313.1
2016-May-01 12:33N 40°58' E 002°54'1313.2
2016-May-01 11:34N 40°45' E 002°47'1312.7
2016-May-01 10:33N 40°33' E 002°42'1212.0
2016-May-01 09:33N 40°22' E 002°36'1312.5
2016-May-01 08:33N 40°10' E 002°31'1312.6
2016-May-01 07:33N 39°59' E 002°25'1312.6
2016-May-01 06:33N 39°47' E 002°19'1211.8
2016-May-01 05:31N 39°35' E 002°15'1212.0
2016-May-01 04:33N 39°27' E 002°26'1110.9
2016-May-01 03:33N 39°32' E 002°39'1 1.3
2016-May-01 02:32N 39°33' E 002°38'0 0.0
2016-May-01 01:32N 39°33' E 002°38'0 0.0
2016-May-01 00:32N 39°33' E 002°38'0 0.0
2016-Apr-30 23:32N 39°33' E 002°38'0 0.0
2016-Apr-30 22:32N 39°33' E 002°38'0 0.0
2016-Apr-30 21:32N 39°33' E 002°38'0 0.0
2016-Apr-30 20:32N 39°33' E 002°38'0 0.0
2016-Apr-30 19:32N 39°33' E 002°38'0 0.0
2016-Apr-30 18:32N 39°33' E 002°38'0 0.0
2016-Apr-30 17:32N 39°33' E 002°38'0 0.0
2016-Apr-30 16:32N 39°33' E 002°38'0 0.0
2016-Apr-30 15:32N 39°33' E 002°38'0 0.0
2016-Apr-30 14:32N 39°33' E 002°38'0 0.0
2016-Apr-30 13:32N 39°33' E 002°38'0 0.0
2016-Apr-30 12:32N 39°33' E 002°38'0 0.0
2016-Apr-30 11:32N 39°33' E 002°38'0 0.0
2016-Apr-30 10:32N 39°33' E 002°38'0 0.0
2016-Apr-30 09:29N 39°33' E 002°38'0 0.0
2016-Apr-30 08:32N 39°33' E 002°38'0 0.0
2016-Apr-30 07:32N 39°33' E 002°38'0 0.0
2016-Apr-30 06:32N 39°33' E 002°38'0 0.0
2016-Apr-30 05:26N 39°33' E 002°38'0 0.0
2016-Apr-30 04:32N 39°33' E 002°38'0 0.0
2016-Apr-30 03:32N 39°33' E 002°38'0 0.0
2016-Apr-30 02:32N 39°33' E 002°38'0 0.0
2016-Apr-30 01:32N 39°33' E 002°38'0 0.0
2016-Apr-30 00:32N 39°33' E 002°38'0 0.0
2016-Apr-29 23:32N 39°33' E 002°38'0 0.0
2016-Apr-29 22:32N 39°33' E 002°38'0 0.0
2016-Apr-29 21:32N 39°33' E 002°38'0 0.0
2016-Apr-29 20:32N 39°33' E 002°38'0 0.0
2016-Apr-29 19:32N 39°33' E 002°38'0 0.0
2016-Apr-29 18:32N 39°33' E 002°38'0 0.0
2016-Apr-29 17:32N 39°33' E 002°38'0 0.0
2016-Apr-29 16:32N 39°33' E 002°38'0 0.0
2016-Apr-29 15:32N 39°33' E 002°38'0 0.0
2016-Apr-29 14:32N 39°33' E 002°38'0 0.0
2016-Apr-29 13:32N 39°33' E 002°38'0 0.0
2016-Apr-29 12:32N 39°33' E 002°38'0 0.0
2016-Apr-29 11:32N 39°33' E 002°38'0 0.0
2016-Apr-29 10:29N 39°33' E 002°38'0 0.0
2016-Apr-29 09:32N 39°33' E 002°38'0 0.0
2016-Apr-29 08:32N 39°33' E 002°38'0 0.0
2016-Apr-29 07:32N 39°33' E 002°38'0 0.0
2016-Apr-29 06:32N 39°33' E 002°38'0 0.0
2016-Apr-29 05:32N 39°33' E 002°38'0 0.3
2016-Apr-29 04:33N 39°33' E 002°38'4 4.1
2016-Apr-29 03:33N 39°29' E 002°37'8 7.5
2016-Apr-29 02:33N 39°23' E 002°31'7 7.1
2016-Apr-29 01:33N 39°18' E 002°25'1211.5
2016-Apr-29 00:33N 39°09' E 002°16'1313.0
2016-Apr-28 23:33N 38°59' E 002°06'1313.2
2016-Apr-28 22:33N 38°48' E 001°55'13413.0
2016-Apr-28 12:14N 37°26' W 000°19'2212.5
2016-Apr-28 10:30N 37°13' W 000°42'22413.0
2016-Apr-27 17:14N 36°06' W 005°08'1013.9
2016-Apr-27 16:32N 36°06' W 005°20'2 1.6
2016-Apr-27 15:30N 36°07' W 005°21'0 0.0
2016-Apr-27 11:24N 36°07' W 005°21'0 0.0
2016-Apr-27 10:06N 36°07' W 005°21'0 0.2
2016-Apr-27 09:27N 36°07' W 005°21'0 0.0
2016-Apr-27 08:12N 36°07' W 005°21'0 0.0
2016-Apr-27 07:33N 36°07' W 005°21'0 0.1
2016-Apr-27 06:27N 36°07' W 005°21'0 0.1
2016-Apr-27 05:18N 36°07' W 005°21'0 0.1
2016-Apr-27 04:24N 36°07' W 005°21'0 0.0
2016-Apr-27 03:18N 36°07' W 005°21'0 0.1
2016-Apr-27 02:24N 36°07' W 005°21'0 0.1
2016-Apr-27 01:18N 36°07' W 005°21'0 0.2
2016-Apr-27 00:33N 36°07' W 005°21'4 4.3
2016-Apr-26 23:33N 36°03' W 005°20'23414.6
2016-Apr-26 07:30N 34°39' W 009°48'2814.1
2016-Apr-26 05:29N 34°28' W 010°20'  
Track history (hours):
 
Tides and Currents Weather Stations Pressure Air Temp Water Temp Dewpoint Dewpoint Depression Visibility Wind Speed Wind Dir Waves Ship Positions

BBC Congo

Last reported at 2016-May-03 21:34 UTC. Time now 2016-May-03 22:04 UTC.
Position N 44°12' E 009°02'.

Length 144 m; draft 8.8 m.

Type: Ship. MMSI: 305466000.

Date/timePositionNaut miles runAvg speedWind from/ knotsBaromVisibWave heightAir tempDewpointWater temp
2016-May-03 21:34N 44°12' E 009°02'1312.8
2016-May-03 20:33N 44°24' E 008°56'2 1.5
2016-May-03 19:33N 44°24' E 008°54'0 0.0
2016-May-03 18:33N 44°24' E 008°54'0 0.0
2016-May-03 17:33N 44°24' E 008°54'0 0.0
2016-May-03 16:33N 44°24' E 008°54'0 0.0
2016-May-03 15:33N 44°24' E 008°54'0 0.0
2016-May-03 14:33N 44°24' E 008°54'0 0.0
2016-May-03 13:33N 44°24' E 008°54'0 0.0
2016-May-03 12:27N 44°24' E 008°54'0 0.0
2016-May-03 11:30N 44°24' E 008°54'0 0.0
2016-May-03 10:30N 44°24' E 008°54'0 0.0
2016-May-03 09:33N 44°24' E 008°54'0 0.0
2016-May-03 08:33N 44°24' E 008°54'0 0.0
2016-May-03 07:33N 44°24' E 008°54'0 0.0
2016-May-03 06:33N 44°24' E 008°54'0 0.0
2016-May-03 05:33N 44°24' E 008°54'0 0.1
2016-May-03 04:34N 44°24' E 008°54'5 4.7
2016-May-03 03:31N 44°22' E 008°60'0 0.0
2016-May-03 02:31N 44°22' E 008°60'0 0.0
2016-May-03 01:31N 44°22' E 008°60'0 0.0
2016-May-03 00:28N 44°22' E 008°60'0 0.0
2016-May-02 23:31N 44°22' E 008°60'0 0.0
2016-May-02 22:31N 44°22' E 008°60'0 0.0
2016-May-02 21:31N 44°22' E 008°60'0 0.0
2016-May-02 20:31N 44°22' E 008°60'1 1.1
2016-May-02 19:33N 44°21' E 008°59'1212.0
2016-May-02 18:33N 44°12' E 008°48'1313.0
2016-May-02 17:33N 44°03' E 008°35'1212.4
2016-May-02 16:33N 43°54' E 008°22'3012.6
2016-May-02 14:09N 43°34' E 007°52'814.1
2016-May-02 13:33N 43°28' E 007°43'1514.5
2016-May-02 12:33N 43°18' E 007°29'23710.3
2016-May-01 13:32N 41°10' E 002°59'1313.1
2016-May-01 12:33N 40°58' E 002°54'1313.2
2016-May-01 11:34N 40°45' E 002°47'1312.7
2016-May-01 10:33N 40°33' E 002°42'1212.0
2016-May-01 09:33N 40°22' E 002°36'1312.5
2016-May-01 08:33N 40°10' E 002°31'1312.6
2016-May-01 07:33N 39°59' E 002°25'1312.6
2016-May-01 06:33N 39°47' E 002°19'1211.8
2016-May-01 05:31N 39°35' E 002°15'1212.0
2016-May-01 04:33N 39°27' E 002°26'1110.9
2016-May-01 03:33N 39°32' E 002°39'1 1.3
2016-May-01 02:32N 39°33' E 002°38'0 0.0
2016-May-01 01:32N 39°33' E 002°38'0 0.0
2016-May-01 00:32N 39°33' E 002°38'0 0.0
2016-Apr-30 23:32N 39°33' E 002°38'0 0.0
2016-Apr-30 22:32N 39°33' E 002°38'0 0.0
2016-Apr-30 21:32N 39°33' E 002°38'0 0.0
2016-Apr-30 20:32N 39°33' E 002°38'0 0.0
2016-Apr-30 19:32N 39°33' E 002°38'0 0.0
2016-Apr-30 18:32N 39°33' E 002°38'0 0.0
2016-Apr-30 17:32N 39°33' E 002°38'0 0.0
2016-Apr-30 16:32N 39°33' E 002°38'0 0.0
2016-Apr-30 15:32N 39°33' E 002°38'0 0.0
2016-Apr-30 14:32N 39°33' E 002°38'0 0.0
2016-Apr-30 13:32N 39°33' E 002°38'0 0.0
2016-Apr-30 12:32N 39°33' E 002°38'0 0.0
2016-Apr-30 11:32N 39°33' E 002°38'0 0.0
2016-Apr-30 10:32N 39°33' E 002°38'0 0.0
2016-Apr-30 09:29N 39°33' E 002°38'0 0.0
2016-Apr-30 08:32N 39°33' E 002°38'0 0.0
2016-Apr-30 07:32N 39°33' E 002°38'0 0.0
2016-Apr-30 06:32N 39°33' E 002°38'0 0.0
2016-Apr-30 05:26N 39°33' E 002°38'0 0.0
2016-Apr-30 04:32N 39°33' E 002°38'0 0.0
2016-Apr-30 03:32N 39°33' E 002°38'0 0.0
2016-Apr-30 02:32N 39°33' E 002°38'0 0.0
2016-Apr-30 01:32N 39°33' E 002°38'0 0.0
2016-Apr-30 00:32N 39°33' E 002°38'0 0.0
2016-Apr-29 23:32N 39°33' E 002°38'0 0.0
2016-Apr-29 22:32N 39°33' E 002°38'0 0.0
2016-Apr-29 21:32N 39°33' E 002°38'0 0.0
2016-Apr-29 20:32N 39°33' E 002°38'0 0.0
2016-Apr-29 19:32N 39°33' E 002°38'0 0.0
2016-Apr-29 18:32N 39°33' E 002°38'0 0.0
2016-Apr-29 17:32N 39°33' E 002°38'0 0.0
2016-Apr-29 16:32N 39°33' E 002°38'0 0.0
2016-Apr-29 15:32N 39°33' E 002°38'0 0.0
2016-Apr-29 14:32N 39°33' E 002°38'0 0.0
2016-Apr-29 13:32N 39°33' E 002°38'0 0.0
2016-Apr-29 12:32N 39°33' E 002°38'0 0.0
2016-Apr-29 11:32N 39°33' E 002°38'0 0.0
2016-Apr-29 10:29N 39°33' E 002°38'0 0.0
2016-Apr-29 09:32N 39°33' E 002°38'0 0.0
2016-Apr-29 08:32N 39°33' E 002°38'0 0.0
2016-Apr-29 07:32N 39°33' E 002°38'0 0.0
2016-Apr-29 06:32N 39°33' E 002°38'0 0.0
2016-Apr-29 05:32N 39°33' E 002°38'0 0.3
2016-Apr-29 04:33N 39°33' E 002°38'4 4.1
2016-Apr-29 03:33N 39°29' E 002°37'8 7.5
2016-Apr-29 02:33N 39°23' E 002°31'7 7.1
2016-Apr-29 01:33N 39°18' E 002°25'1211.5
2016-Apr-29 00:33N 39°09' E 002°16'1313.0
2016-Apr-28 23:33N 38°59' E 002°06'1313.2
2016-Apr-28 22:33N 38°48' E 001°55'13413.0
2016-Apr-28 12:14N 37°26' W 000°19'2212.5
2016-Apr-28 10:30N 37°13' W 000°42'22413.0
2016-Apr-27 17:14N 36°06' W 005°08'1013.9
2016-Apr-27 16:32N 36°06' W 005°20'2 1.6
2016-Apr-27 15:30N 36°07' W 005°21'0 0.0
2016-Apr-27 11:24N 36°07' W 005°21'0 0.0
2016-Apr-27 10:06N 36°07' W 005°21'0 0.2
2016-Apr-27 09:27N 36°07' W 005°21'0 0.0
2016-Apr-27 08:12N 36°07' W 005°21'0 0.0
2016-Apr-27 07:33N 36°07' W 005°21'0 0.1
2016-Apr-27 06:27N 36°07' W 005°21'0 0.1
2016-Apr-27 05:18N 36°07' W 005°21'0 0.1
2016-Apr-27 04:24N 36°07' W 005°21'0 0.0
2016-Apr-27 03:18N 36°07' W 005°21'0 0.1
2016-Apr-27 02:24N 36°07' W 005°21'0 0.1
2016-Apr-27 01:18N 36°07' W 005°21'0 0.2
2016-Apr-27 00:33N 36°07' W 005°21'4 4.3
2016-Apr-26 23:33N 36°03' W 005°20'23414.6
2016-Apr-26 07:30N 34°39' W 009°48'2814.1
2016-Apr-26 05:29N 34°28' W 010°20'  

Dump ship's entire track history